Copper Harbor, MI

6:05 AM EST on February 08, 2016 (GMT -0500)
MARITIME | | Change Station
CLOSE
Current Station
Personal Weather Station
Location: Lexington, MI
Elevation: 577 ft
Nearby Weather Stations
Active Advisory: Winter Weather Advisory

Elev 577 ft 43.30 °N, 82.30 °W | Updated 100 days ago

Snow
Snow
22 °F
Feels Like 5 °F
N
24
Wind Variable Wind from NNW
Gusts mph

Today
High -- | Low -- °F
--% Chance of Precip.
Yesterday
High -- | Low -- °F
Precip. -- in
Pressure 29.60 in
Visibility 1.2 miles
Clouds Scattered Clouds 1000 ft
Overcast 2700 ft
Windchill 5 °F
Dew Point 20 °F
Humidity 94%
Rainfall in
Snow Depth Not available.
8:06 AM 6:01 PM
Waning Crescent, 0% visible
SPECI KCMX 081103Z AUTO 35022KT 1 1/4SM -SN BR SCT010 OVC027 M07/M09 A2960 RMK AO2 PK WND 34026/1103 P0000 T10671089 TSNO
Pressure 29.60 in
Visibility 1.2 miles
Clouds Scattered Clouds 1000 ft
Overcast 2700 ft
Windchill 5 °F
Dew Point 20 °F
Humidity 94%
Rainfall in
Snow Depth Not available.
8:06 AM 6:01 PM
Waning Crescent, 0% visible
SPECI KCMX 081103Z AUTO 35022KT 1 1/4SM -SN BR SCT010 OVC027 M07/M09 A2960 RMK AO2 PK WND 34026/1103 P0000 T10671089 TSNO

10-Day Weather Forecast

Almanac

Astronomy

Feb. 08, 2016 Rise Set
Actual Time
Civil Twilight
Nautical Twilight
Astronomical Twilight
Moon
Length of Visible Light
Length of Day
Tomorrow will be .
, % of the Moon is Illuminated

Today's Extremes

State Highs State Lows

Community

WunderPhotos

Upload Photos

1,891,420 photos uploaded!

WunderBlog® & News

Nearby

Air Quality

  Air Quality AQ Index Pollutant
Not available.

Snow Depth

Station Depth Elevation

Earthquake Activity

City Distance Mag. Time & Date
Minimum magnitude displayed is 2.5.

Coastal Water Temperatures

Place Temperature

Stations

Nearby Weather Stations

Station Location Temp. Windchill Dew Point Humidity Wind Precip. Elev Updated Type
                   

Watches & Warnings

Winter Weather Advisory
Issued: 4:19 AM EST Feb. 8, 2016 – National Weather Service

... Winter Weather Advisory in effect until 7 am EST Tuesday...

The National Weather Service in Marquette has issued a Winter
Weather Advisory for snow... and blowing snow... which is in effect
until 7 am EST Tuesday.

Hazardous weather...

* snow will continue through tonight.

* Look for accumulations through tonight of 3 to 7 inches... with the
   greatest amounts in the higher terrain from Twin Lakes to Calumet
   and Delaware.

* Expect areas of blowing snow with reduced visibility late tonight
   through tonight along Lake Superior.

Impacts...

* roads will become snow covered and slippery.

Precautionary/preparedness actions...

* a Winter Weather Advisory for snow means that periods of snow
   will cause primarily travel difficulties.

* Prepare... plan... and stay informed. Visit www.Weather.Gov/MQT